Time;durP1;ratioP1;P1;durP2;ratioP2;P2;SDS_P1;SDS_P2;PMS_P1;PMS_P2;Temp;Humidity;BMP_temperature;BMP_pressure;BME280_temperature;BME280_humidity;BME280_pressure;Samples;Min_cycle;Max_cycle;Signal;HPM_P1;HPM_P2
2022/06/10 00:01:07;;;;;;;9.45;3.42;;;15.10;99.90;;;;;;5079511;28;20024;-49
2022/06/10 00:03:35;;;;;;;7.18;4.00;;;15.10;99.90;;;;;;5079797;28;20103;-52
2022/06/10 00:06:04;;;;;;;9.50;3.42;;;15.10;99.90;;;;;;5078642;28;20084;-48
2022/06/10 00:08:33;;;;;;;7.65;4.35;;;14.90;99.90;;;;;;5079837;28;20024;-52
2022/06/10 00:11:00;;;;;;;5.63;3.05;;;14.80;99.90;;;;;;5079651;28;20101;-48
2022/06/10 00:13:29;;;;;;;4.93;3.13;;;14.80;99.90;;;;;;5080054;28;20033;-47
2022/06/10 00:15:55;;;;;;;5.35;3.17;;;14.70;99.90;;;;;;5079721;28;20020;-53
2022/06/10 00:18:23;;;;;;;5.50;3.45;;;14.70;99.90;;;;;;5080001;28;20028;-48
2022/06/10 00:20:48;;;;;;;4.80;3.17;;;14.60;99.90;;;;;;5079868;28;20024;-49
2022/06/10 00:23:14;;;;;;;10.15;3.38;;;14.60;99.90;;;;;;5079806;28;20067;-48
2022/06/10 00:25:40;;;;;;;10.48;3.92;;;14.50;99.90;;;;;;5080059;28;20025;-50
2022/06/10 00:28:07;;;;;;;6.32;3.00;;;14.50;99.90;;;;;;5079463;28;20484;-51
2022/06/10 00:30:33;;;;;;;6.53;2.70;;;14.50;99.90;;;;;;5079950;28;20024;-50
2022/06/10 00:32:59;;;;;;;6.38;2.63;;;14.90;99.90;;;;;;5080345;28;20089;-52
2022/06/10 00:35:26;;;;;;;5.30;3.65;;;14.40;99.90;;;;;;5079783;28;20032;-51
2022/06/10 00:37:52;;;;;;;9.32;3.10;;;14.40;99.90;;;;;;5079277;28;20373;-49
2022/06/10 00:40:29;;;;;;;6.25;3.22;;;14.40;99.90;;;;;;5078556;28;20093;-48
2022/06/10 00:42:56;;;;;;;6.78;3.50;;;14.40;99.90;;;;;;5079737;28;20017;-47
2022/06/10 00:45:53;;;;;;;6.80;3.25;;;14.40;99.90;;;;;;5078961;28;20388;-48
2022/06/10 00:48:36;;;;;;;3.55;3.25;;;14.40;99.90;;;;;;5079291;28;20032;-49
2022/06/10 00:51:17;;;;;;;7.32;3.25;;;14.40;99.90;;;;;;5080240;28;20025;-49
2022/06/10 00:53:43;;;;;;;3.72;2.90;;;14.40;99.90;;;;;;5079305;28;20025;-47
2022/06/10 00:56:19;;;;;;;6.22;4.13;;;14.40;99.90;;;;;;5079542;28;20032;-53
2022/06/10 00:59:11;;;;;;;4.00;3.20;;;14.30;99.90;;;;;;5078208;28;20021;-49
2022/06/10 01:01:38;;;;;;;3.90;3.20;;;14.30;99.90;;;;;;5072984;28;20041;-47
2022/06/10 01:04:05;;;;;;;7.78;3.92;;;14.30;99.90;;;;;;5077692;28;20020;-46
2022/06/10 01:06:31;;;;;;;4.55;3.15;;;14.30;99.90;;;;;;5077663;28;20028;-46
2022/06/10 01:09:00;;;;;;;4.97;3.80;;;14.30;99.90;;;;;;5078042;28;20070;-47
2022/06/10 01:12:05;;;;;;;6.30;4.30;;;14.30;99.90;;;;;;5077797;28;20039;-48
2022/06/10 01:15:09;;;;;;;4.70;3.50;;;14.30;99.90;;;;;;5077770;28;20031;-49
2022/06/10 01:17:42;;;;;;;5.63;3.90;;;14.30;99.90;;;;;;5077128;28;20027;-48
2022/06/10 01:20:23;;;;;;;5.10;3.67;;;14.30;99.90;;;;;;5078211;28;20016;-51
2022/06/10 01:23:20;;;;;;;11.05;4.20;;;14.30;99.90;;;;;;5077956;28;20047;-49
2022/06/10 01:25:55;;;;;;;7.45;4.38;;;14.30;99.90;;;;;;5079149;28;20028;-51
2022/06/10 01:28:55;;;;;;;5.63;4.33;;;14.20;99.90;;;;;;5078744;28;20097;-52
2022/06/10 01:31:42;;;;;;;6.05;3.90;;;14.20;99.90;;;;;;5076729;28;20499;-52
2022/06/10 01:34:26;;;;;;;9.10;5.32;;;14.20;99.90;;;;;;5078041;28;20033;-53
2022/06/10 01:37:02;;;;;;;7.45;5.35;;;14.20;99.90;;;;;;5078261;28;20017;-54
2022/06/10 01:39:38;;;;;;;9.00;5.97;;;14.30;99.90;;;;;;5079112;28;20055;-52
2022/06/10 01:42:45;;;;;;;12.60;5.93;;;14.20;99.90;;;;;;5078095;28;20017;-50
2022/06/10 01:45:33;;;;;;;7.10;5.80;;;14.10;99.90;;;;;;5078636;28;20025;-54
2022/06/10 01:48:06;;;;;;;10.18;6.35;;;13.90;99.90;;;;;;5078012;28;20028;-49
2022/06/10 01:50:41;;;;;;;6.20;5.55;;;13.80;99.90;;;;;;5079024;28;20021;-49
2022/06/10 01:53:16;;;;;;;14.75;5.32;;;13.80;99.90;;;;;;5081960;28;20028;-50
2022/06/10 01:55:56;;;;;;;7.97;4.95;;;13.80;99.90;;;;;;5082464;28;20039;-47
2022/06/10 01:58:40;;;;;;;6.30;4.93;;;13.80;99.90;;;;;;5083251;28;20115;-47
2022/06/10 02:01:15;;;;;;;7.80;5.43;;;13.70;99.90;;;;;;5084266;28;20436;-50
2022/06/10 02:03:59;;;;;;;6.78;5.35;;;13.70;99.90;;;;;;5083182;28;20021;-50
2022/06/10 02:06:30;;;;;;;9.80;5.20;;;13.70;99.90;;;;;;5084074;28;20024;-49
2022/06/10 02:09:13;;;;;;;8.48;5.43;;;13.60;99.90;;;;;;5083563;28;20080;-48
2022/06/10 02:11:45;;;;;;;5.63;4.82;;;13.70;99.90;;;;;;5084346;28;20468;-48
2022/06/10 02:14:22;;;;;;;5.75;4.70;;;13.60;99.90;;;;;;5084235;28;20029;-48
2022/06/10 02:16:49;;;;;;;5.93;4.70;;;13.60;99.90;;;;;;5083923;28;20040;-48
2022/06/10 02:19:26;;;;;;;6.53;4.53;;;13.60;99.90;;;;;;5083869;28;20032;-47
2022/06/10 02:21:57;;;;;;;8.55;5.20;;;13.60;99.90;;;;;;5084560;28;20099;-50
2022/06/10 02:24:35;;;;;;;5.78;4.43;;;13.50;99.90;;;;;;5084250;28;20458;-48
2022/06/10 02:27:06;;;;;;;7.05;4.60;;;13.60;99.90;;;;;;5084545;28;20054;-48
2022/06/10 02:29:39;;;;;;;8.50;5.32;;;13.70;99.90;;;;;;5084772;28;20028;-50
2022/06/10 02:32:05;;;;;;;7.70;5.32;;;13.60;99.90;;;;;;5085260;28;20035;-47
2022/06/10 02:34:30;;;;;;;6.32;4.78;;;13.50;99.90;;;;;;5083868;28;20535;-47
2022/06/10 02:37:23;;;;;;;5.88;4.53;;;13.50;99.90;;;;;;5084244;28;20033;-47
2022/06/10 02:40:22;;;;;;;7.85;4.88;;;13.50;99.90;;;;;;5085325;28;20020;-46
2022/06/10 02:43:15;;;;;;;4.93;4.43;;;13.50;99.90;;;;;;5084094;28;20024;-51
2022/06/10 02:46:02;;;;;;;7.70;5.38;;;13.50;99.90;;;;;;5082169;28;20013;-48
2022/06/10 02:49:03;;;;;;;6.97;4.97;;;13.50;99.90;;;;;;5082686;28;20032;-51
2022/06/10 02:51:30;;;;;;;7.57;5.57;;;13.60;99.90;;;;;;5081312;28;20084;-52
2022/06/10 02:53:56;;;;;;;6.05;4.78;;;13.60;99.90;;;;;;5083617;28;20051;-47
2022/06/10 02:56:26;;;;;;;6.07;5.28;;;13.40;99.90;;;;;;5085144;28;20060;-52
2022/06/10 03:02:04;;;;;;;7.85;5.10;;;13.30;99.90;;;;;;5080753;28;20036;-52
2022/06/10 03:05:01;;;;;;;9.38;4.97;;;13.30;99.90;;;;;;5080663;28;20395;-48
2022/06/10 03:07:44;;;;;;;6.65;4.68;;;13.20;99.90;;;;;;5080086;28;20032;-49
2022/06/10 03:10:28;;;;;;;7.72;4.68;;;13.20;99.90;;;;;;5081060;28;20031;-49
2022/06/10 03:13:16;;;;;;;6.63;5.00;;;13.30;99.90;;;;;;5080363;28;20024;-49
2022/06/10 03:15:49;;;;;;;7.28;4.70;;;13.30;99.90;;;;;;5080884;28;20048;-49
2022/06/10 03:18:59;;;;;;;6.57;4.88;;;13.30;99.90;;;;;;5081043;28;20431;-46
2022/06/10 03:21:53;;;;;;;7.93;4.50;;;13.40;99.90;;;;;;5079882;28;20029;-50
2022/06/10 03:24:33;;;;;;;5.00;4.50;;;13.40;99.90;;;;;;5080418;28;20021;-46
2022/06/10 03:27:10;;;;;;;5.40;4.50;;;13.40;99.90;;;;;;5080261;28;20024;-50
2022/06/10 03:29:52;;;;;;;8.52;5.47;;;13.40;99.90;;;;;;5081107;28;20024;-49
2022/06/10 03:32:34;;;;;;;6.18;5.57;;;13.40;99.90;;;;;;5080950;28;20024;-48
2022/06/10 03:35:22;;;;;;;17.35;8.02;;;13.30;99.90;;;;;;5078653;28;20025;-50
2022/06/10 03:37:48;;;;;;;7.30;5.15;;;13.20;99.90;;;;;;5067346;28;20131;-49
2022/06/10 03:40:24;;;;;;;8.80;5.85;;;13.20;99.90;;;;;;5069976;28;20017;-52
2022/06/10 03:42:58;;;;;;;7.20;5.88;;;13.10;99.90;;;;;;5080283;28;20062;-50
2022/06/10 03:45:39;;;;;;;7.70;5.78;;;13.10;99.90;;;;;;5081338;28;20050;-49
2022/06/10 03:48:06;;;;;;;10.30;5.70;;;13.10;99.90;;;;;;5079446;28;20028;-51
2022/06/10 03:50:36;;;;;;;6.80;5.50;;;13.10;99.90;;;;;;5064992;28;20033;-46
2022/06/10 03:53:03;;;;;;;10.65;6.10;;;13.10;99.90;;;;;;5065974;28;20035;-48
2022/06/10 03:55:28;;;;;;;5.57;4.60;;;13.10;99.90;;;;;;5080325;28;20044;-52
2022/06/10 03:57:54;;;;;;;11.15;5.43;;;13.10;99.90;;;;;;5080321;28;20388;-48
2022/06/10 04:00:23;;;;;;;5.72;4.95;;;13.20;99.90;;;;;;5080702;28;20397;-47
2022/06/10 04:02:49;;;;;;;5.82;5.32;;;13.30;99.90;;;;;;5078531;28;20027;-46
2022/06/10 04:05:15;;;;;;;6.70;5.47;;;13.30;99.90;;;;;;5079944;28;20483;-47
2022/06/10 04:07:42;;;;;;;5.15;4.75;;;13.70;99.90;;;;;;5074670;28;20064;-50
2022/06/10 04:10:12;;;;;;;8.50;5.38;;;13.50;99.90;;;;;;5063555;28;20039;-51
2022/06/10 04:12:37;;;;;;;12.07;6.07;;;13.50;99.90;;;;;;5079812;28;20116;-48
2022/06/10 04:15:05;;;;;;;6.85;6.15;;;13.60;99.90;;;;;;5071172;28;20052;-46
2022/06/10 04:17:30;;;;;;;7.40;5.88;;;13.60;99.90;;;;;;5060157;28;20024;-54
2022/06/10 04:19:57;;;;;;;10.30;6.07;;;13.70;99.90;;;;;;5067276;28;20020;-51
2022/06/10 04:22:23;;;;;;;8.02;6.13;;;13.80;99.90;;;;;;5063729;28;20023;-49
2022/06/10 04:24:49;;;;;;;7.43;5.93;;;13.90;99.90;;;;;;5070507;28;20031;-50
2022/06/10 04:27:15;;;;;;;8.10;5.75;;;14.00;99.90;;;;;;5059242;28;20021;-48
2022/06/10 04:29:41;;;;;;;10.38;6.22;;;14.00;99.90;;;;;;5069149;28;20025;-49
2022/06/10 04:32:07;;;;;;;7.68;5.85;;;14.20;99.90;;;;;;5072081;28;20674;-49
2022/06/10 04:34:33;;;;;;;14.00;6.10;;;14.30;99.90;;;;;;5065697;28;20219;-55
2022/06/10 04:36:58;;;;;;;7.80;5.03;;;14.40;99.90;;;;;;5080859;28;20030;-54
2022/06/10 04:39:24;;;;;;;5.88;4.70;;;14.60;99.90;;;;;;5080026;28;20039;-55
2022/06/10 04:41:49;;;;;;;11.18;4.70;;;14.70;99.90;;;;;;5068682;28;20035;-55
2022/06/10 04:44:15;;;;;;;13.05;5.03;;;14.90;99.90;;;;;;5072787;28;20025;-53
2022/06/10 04:46:42;;;;;;;8.90;5.65;;;15.00;99.90;;;;;;5076092;28;20037;-50
2022/06/10 04:49:09;;;;;;;7.65;4.47;;;15.10;99.90;;;;;;5093734;28;20109;-51
2022/06/10 04:51:36;;;;;;;13.38;4.88;;;15.40;99.90;;;;;;5060127;28;20400;-48
2022/06/10 04:54:03;;;;;;;10.90;4.60;;;15.80;99.90;;;;;;5074830;28;20124;-49
2022/06/10 04:56:30;;;;;;;6.95;4.10;;;16.30;99.90;;;;;;5074601;28;20051;-49
2022/06/10 04:58:56;;;;;;;47.63;6.35;;;16.90;99.90;;;;;;5071788;28;20441;-48
2022/06/10 05:01:21;;;;;;;101.80;7.60;;;17.80;99.90;;;;;;5081858;28;20020;-55
2022/06/10 05:06:15;;;;;;;16.73;3.35;;;19.50;99.90;;;;;;5047954;28;20492;-49
2022/06/10 05:08:41;;;;;;;6.93;3.67;;;20.70;99.90;;;;;;5049452;28;20032;-49
2022/06/10 05:11:09;;;;;;;11.63;3.60;;;21.70;99.90;;;;;;5051329;28;20021;-49
2022/06/10 05:13:36;;;;;;;6.40;2.95;;;22.30;99.00;;;;;;5050247;28;20500;-50
2022/06/10 05:16:03;;;;;;;5.68;2.67;;;22.80;98.00;;;;;;5050565;28;20033;-49
2022/06/10 05:18:29;;;;;;;4.72;2.80;;;23.30;97.00;;;;;;5050932;28;20037;-48
2022/06/10 05:20:55;;;;;;;2.83;2.20;;;23.70;95.30;;;;;;5051211;28;20401;-48
2022/06/10 05:23:23;;;;;;;3.55;2.60;;;24.40;95.50;;;;;;5051494;28;20029;-48
2022/06/10 05:25:49;;;;;;;6.90;2.92;;;25.00;94.00;;;;;;5054485;28;20021;-47
2022/06/10 05:28:15;;;;;;;9.40;2.63;;;25.40;93.00;;;;;;5057546;28;20029;-49
2022/06/10 05:30:41;;;;;;;9.15;2.80;;;25.80;91.70;;;;;;5052723;28;20041;-51
2022/06/10 05:33:09;;;;;;;4.50;2.55;;;26.10;90.90;;;;;;5055826;28;20035;-47
2022/06/10 05:35:35;;;;;;;3.92;2.50;;;26.00;91.60;;;;;;5056681;28;20103;-47
2022/06/10 05:38:02;;;;;;;5.15;2.50;;;26.40;90.70;;;;;;5056653;28;20472;-49
2022/06/10 05:40:29;;;;;;;7.35;2.60;;;27.00;89.40;;;;;;5056923;28;20096;-46
2022/06/10 05:42:55;;;;;;;9.65;2.92;;;27.40;88.00;;;;;;5056721;28;20036;-51
2022/06/10 05:45:21;;;;;;;4.15;2.50;;;27.70;87.00;;;;;;5056985;28;20033;-48
2022/06/10 05:47:52;;;;;;;5.05;2.58;;;27.80;86.00;;;;;;5057241;28;20397;-47
2022/06/10 05:50:22;;;;;;;5.65;2.95;;;27.90;84.70;;;;;;5057065;28;20025;-46
2022/06/10 05:52:49;;;;;;;5.53;3.00;;;28.10;83.40;;;;;;5058076;28;20401;-46
2022/06/10 05:55:15;;;;;;;4.07;2.53;;;28.30;82.70;;;;;;5056709;28;20051;-46
2022/06/10 05:57:41;;;;;;;8.30;2.58;;;28.50;82.40;;;;;;5037241;28;20037;-47
2022/06/10 06:00:13;;;;;;;8.98;3.05;;;28.80;82.50;;;;;;5047397;28;20017;-49
2022/06/10 06:02:39;;;;;;;7.43;2.60;;;28.30;81.10;;;;;;5056893;28;20072;-47
2022/06/10 06:05:05;;;;;;;5.65;2.45;;;28.20;82.90;;;;;;5057465;28;20033;-47
2022/06/10 06:07:31;;;;;;;9.05;3.00;;;28.60;81.70;;;;;;5057267;28;20091;-45
2022/06/10 06:09:57;;;;;;;3.22;2.58;;;28.60;81.30;;;;;;5057673;28;20053;-46
2022/06/10 06:12:23;;;;;;;4.53;2.80;;;28.90;80.70;;;;;;5057636;28;20064;-46
2022/06/10 06:14:49;;;;;;;6.03;2.60;;;29.30;78.90;;;;;;5058345;28;20029;-47
2022/06/10 06:17:16;;;;;;;4.00;2.05;;;29.40;78.00;;;;;;5054325;28;20036;-46
2022/06/10 06:19:42;;;;;;;5.10;2.20;;;29.70;77.50;;;;;;5057307;28;20027;-48
2022/06/10 06:22:08;;;;;;;3.67;1.88;;;30.00;75.60;;;;;;5057180;28;20431;-46
2022/06/10 06:24:35;;;;;;;2.05;1.80;;;30.10;76.00;;;;;;5055761;28;20366;-50
2022/06/10 06:27:01;;;;;;;7.03;2.30;;;30.10;75.70;;;;;;5056854;28;20484;-48
2022/06/10 06:29:26;;;;;;;8.20;2.17;;;30.10;75.30;;;;;;5057290;28;20032;-50
2022/06/10 06:31:53;;;;;;;7.93;2.55;;;30.10;75.10;;;;;;5057249;28;20021;-49
2022/06/10 06:34:20;;;;;;;4.43;2.17;;;30.30;74.50;;;;;;5056807;28;20036;-49
2022/06/10 06:36:48;;;;;;;4.13;2.10;;;29.90;74.80;;;;;;5049563;28;20036;-46
2022/06/10 06:39:16;;;;;;;4.30;1.88;;;30.20;74.70;;;;;;5053636;28;20040;-46
2022/06/10 06:41:42;;;;;;;6.90;2.17;;;30.80;73.50;;;;;;5053225;28;20017;-46
2022/06/10 06:44:07;;;;;;;4.45;2.10;;;31.20;73.10;;;;;;5053394;28;20055;-47
2022/06/10 06:46:34;;;;;;;5.00;2.55;;;31.50;72.40;;;;;;5052075;28;20028;-47
2022/06/10 06:49:02;;;;;;;3.05;1.70;;;31.70;70.70;;;;;;5054252;28;20040;-46
2022/06/10 06:51:28;;;;;;;8.10;2.22;;;31.80;69.70;;;;;;5053828;28;20025;-47
2022/06/10 06:53:54;;;;;;;4.03;1.90;;;31.70;69.50;;;;;;5053352;28;20498;-47
2022/06/10 06:56:19;;;;;;;5.57;2.13;;;32.00;69.50;;;;;;5053746;28;20048;-48
2022/06/10 06:58:45;;;;;;;7.38;2.53;;;31.60;69.60;;;;;;5052810;28;20446;-46
2022/06/10 07:01:10;;;;;;;6.20;2.53;;;31.70;69.60;;;;;;5052984;28;20446;-48
2022/06/10 07:03:36;;;;;;;4.60;1.77;;;31.40;70.10;;;;;;5053609;28;20400;-45
2022/06/10 07:06:02;;;;;;;4.82;1.83;;;31.80;69.70;;;;;;5053084;28;20071;-50
2022/06/10 07:08:33;;;;;;;3.17;1.80;;;32.10;69.20;;;;;;5051964;28;20030;-47
2022/06/10 07:11:00;;;;;;;4.93;2.05;;;32.60;68.70;;;;;;5051328;28;20476;-50
2022/06/10 07:13:26;;;;;;;4.70;1.65;;;33.00;66.70;;;;;;5051699;28;20108;-46
2022/06/10 07:15:54;;;;;;;7.93;5.78;;;33.10;66.00;;;;;;5052600;28;20068;-47
2022/06/10 07:18:19;;;;;;;2.90;2.10;;;33.00;66.00;;;;;;5051110;28;20030;-47
2022/06/10 07:20:45;;;;;;;5.70;1.73;;;33.40;65.00;;;;;;5051161;28;20087;-49
2022/06/10 07:23:11;;;;;;;3.20;1.80;;;33.30;65.10;;;;;;5051592;28;20400;-46
2022/06/10 07:25:37;;;;;;;4.20;1.77;;;33.40;64.80;;;;;;5053008;28;20025;-45
2022/06/10 07:28:03;;;;;;;5.55;2.00;;;33.80;64.10;;;;;;5052451;28;20029;-45
2022/06/10 07:30:31;;;;;;;4.70;1.55;;;33.90;63.40;;;;;;5053173;28;20397;-47
2022/06/10 07:32:57;;;;;;;3.88;1.73;;;33.60;63.30;;;;;;5051201;28;20119;-48
2022/06/10 07:35:23;;;;;;;4.30;1.77;;;33.60;63.90;;;;;;5053236;28;20124;-49
2022/06/10 07:37:50;;;;;;;2.30;1.50;;;33.90;62.80;;;;;;5052305;28;20017;-44
2022/06/10 07:43:09;;;;;;;1.65;1.40;;;34.00;61.30;;;;;;5052944;28;20609;-46
2022/06/10 07:45:35;;;;;;;2.65;1.55;;;34.00;61.80;;;;;;5052934;28;20102;-46
2022/06/10 07:48:01;;;;;;;1.65;1.23;;;33.50;61.60;;;;;;5052010;28;20108;-45
2022/06/10 07:50:27;;;;;;;3.25;1.60;;;33.50;62.00;;;;;;5052930;28;20110;-45
2022/06/10 07:52:52;;;;;;;2.55;1.65;;;34.10;60.50;;;;;;5052664;28;20563;-45
2022/06/10 07:55:19;;;;;;;5.45;1.50;;;34.20;60.10;;;;;;5051828;28;20029;-47
2022/06/10 07:57:44;;;;;;;1.65;1.30;;;33.80;59.30;;;;;;5052127;28;20123;-46
2022/06/10 08:00:11;;;;;;;3.50;1.55;;;33.80;59.80;;;;;;5052574;28;20147;-44
2022/06/10 08:02:38;;;;;;;3.95;1.55;;;33.70;59.40;;;;;;5052594;28;20029;-46
2022/06/10 08:05:05;;;;;;;4.00;1.33;;;33.60;59.80;;;;;;5052025;28;20160;-45
2022/06/10 08:07:31;;;;;;;4.28;1.40;;;33.90;59.70;;;;;;5052106;28;20029;-47
2022/06/10 08:09:56;;;;;;;4.63;1.58;;;33.70;59.00;;;;;;5053016;28;20123;-46
2022/06/10 08:12:22;;;;;;;3.25;1.90;;;34.00;59.20;;;;;;5052588;28;20087;-45
2022/06/10 08:14:48;;;;;;;5.10;2.47;;;33.80;59.20;;;;;;5052334;28;20021;-46
2022/06/10 08:17:13;;;;;;;4.22;1.95;;;33.30;59.60;;;;;;5051718;28;20116;-45
2022/06/10 08:19:39;;;;;;;16.15;13.38;;;32.60;60.60;;;;;;5052209;28;20500;-49
2022/06/10 08:24:50;;;;;;;5.30;1.80;;;30.90;62.20;;;;;;5052297;28;20115;-48
2022/06/10 08:27:16;;;;;;;5.75;1.90;;;30.20;63.80;;;;;;5051546;28;20056;-49
2022/06/10 08:29:41;;;;;;;9.32;2.33;;;30.00;64.50;;;;;;5052119;28;20061;-47
2022/06/10 08:32:07;;;;;;;4.72;1.55;;;29.40;64.70;;;;;;5052220;28;20067;-46
2022/06/10 08:34:33;;;;;;;2.45;1.20;;;29.10;65.80;;;;;;5051649;28;20039;-44
2022/06/10 08:37:01;;;;;;;9.35;1.88;;;28.90;66.90;;;;;;5051541;28;20028;-43
2022/06/10 08:39:27;;;;;;;4.32;1.80;;;28.70;67.50;;;;;;5051697;28;20477;-45
2022/06/10 08:42:02;;;;;;;9.65;2.72;;;28.60;67.50;;;;;;5051962;28;20446;-49
2022/06/10 08:44:49;;;;;;;10.80;2.08;;;28.30;67.80;;;;;;5051471;28;20025;-47
2022/06/10 08:47:31;;;;;;;3.97;2.00;;;28.00;68.60;;;;;;5051605;28;20035;-48
2022/06/10 08:50:28;;;;;;;5.05;1.55;;;27.80;68.80;;;;;;5051800;28;20025;-48
2022/06/10 08:53:18;;;;;;;5.13;1.73;;;27.80;70.90;;;;;;5051794;28;20069;-42
2022/06/10 08:56:03;;;;;;;8.68;1.73;;;27.80;69.50;;;;;;5051476;28;20033;-46
2022/06/10 08:58:53;;;;;;;4.65;1.75;;;27.80;69.50;;;;;;5051419;28;20029;-43
2022/06/10 09:01:22;;;;;;;5.70;2.67;;;27.90;68.30;;;;;;5050653;28;20074;-49
2022/06/10 09:04:18;;;;;;;4.68;1.90;;;27.80;67.80;;;;;;5051480;28;20025;-49
2022/06/10 09:06:51;;;;;;;2.15;1.38;;;27.80;67.90;;;;;;5051777;28;20044;-51
2022/06/10 09:09:19;;;;;;;2.60;0.98;;;27.60;69.10;;;;;;5053072;28;20028;-47
2022/06/10 09:12:18;;;;;;;3.90;1.27;;;27.70;69.10;;;;;;5050934;28;20024;-46
2022/06/10 09:14:44;;;;;;;2.17;1.00;;;27.70;67.00;;;;;;5051641;28;20013;-45
2022/06/10 09:17:21;;;;;;;2.80;1.05;;;27.80;64.30;;;;;;5051076;28;20484;-51
2022/06/10 09:20:18;;;;;;;3.60;1.42;;;27.80;64.90;;;;;;5051255;28;20115;-47
2022/06/10 09:23:08;;;;;;;6.63;1.60;;;27.40;64.60;;;;;;5051335;28;20020;-51
2022/06/10 09:25:42;;;;;;;1.98;1.00;;;27.10;64.90;;;;;;5051478;28;20453;-45
2022/06/10 09:28:07;;;;;;;59.78;46.38;;;26.50;65.70;;;;;;5051095;28;20029;-48
2022/06/10 09:30:53;;;;;;;3.60;2.28;;;26.50;67.90;;;;;;5051573;28;20528;-48
2022/06/10 09:34:01;;;;;;;9.13;6.00;;;26.30;67.90;;;;;;5052569;28;20504;-47
2022/06/10 09:36:52;;;;;;;1.90;0.93;;;26.40;68.10;;;;;;5053132;28;20036;-48
2022/06/10 09:42:38;;;;;;;4.17;1.13;;;26.20;66.80;;;;;;5053172;28;20035;-48
2022/06/10 09:45:29;;;;;;;6.38;1.00;;;26.20;68.40;;;;;;5051042;28;20029;-49
2022/06/10 09:48:17;;;;;;;2.08;1.10;;;25.80;68.80;;;;;;5050929;28;20021;-45
2022/06/10 09:51:00;;;;;;;3.80;1.50;;;25.60;69.60;;;;;;5051082;28;20033;-45
2022/06/10 09:53:36;;;;;;;3.75;1.15;;;25.40;69.60;;;;;;5050746;28;20025;-48
2022/06/10 09:56:01;;;;;;;4.72;1.25;;;25.20;68.00;;;;;;5050658;28;20028;-50
2022/06/10 09:59:04;;;;;;;5.18;0.98;;;25.00;70.40;;;;;;5050559;28;20116;-48
2022/06/10 10:01:40;;;;;;;4.55;0.95;;;25.00;69.90;;;;;;5050859;28;20128;-50
2022/06/10 10:04:28;;;;;;;1.33;1.00;;;24.80;70.10;;;;;;5050651;28;20021;-46
2022/06/10 10:07:25;;;;;;;3.13;1.83;;;24.80;72.70;;;;;;5050209;28;20412;-48
2022/06/10 10:10:20;;;;;;;3.08;1.17;;;24.60;72.00;;;;;;5051014;28;20489;-47
2022/06/10 10:13:07;;;;;;;3.35;1.02;;;24.60;71.60;;;;;;5053415;28;20453;-46
2022/06/10 10:15:36;;;;;;;3.13;1.17;;;24.50;70.20;;;;;;5054769;28;20021;-46
2022/06/10 10:18:24;;;;;;;6.18;1.40;;;24.50;70.10;;;;;;5054562;28;20036;-46
2022/06/10 10:21:13;;;;;;;8.48;2.17;;;24.30;73.50;;;;;;5054078;28;20047;-47
2022/06/10 10:23:43;;;;;;;2.75;1.20;;;24.40;72.20;;;;;;5054544;28;20017;-47
2022/06/10 10:26:29;;;;;;;5.45;1.50;;;24.40;71.80;;;;;;5054426;28;20021;-48
2022/06/10 10:29:04;;;;;;;2.88;1.23;;;24.20;71.70;;;;;;5053946;28;20040;-47
2022/06/10 10:31:38;;;;;;;2.15;1.27;;;24.30;73.00;;;;;;5054322;28;20116;-47
2022/06/10 10:34:05;;;;;;;2.83;0.90;;;24.40;70.40;;;;;;5054197;28;20399;-46
2022/06/10 10:36:35;;;;;;;4.82;1.33;;;24.20;69.90;;;;;;5054060;28;20329;-48
2022/06/10 10:39:30;;;;;;;5.85;1.27;;;24.10;72.10;;;;;;5053854;28;20048;-46
2022/06/10 10:42:04;;;;;;;3.90;1.63;;;24.20;72.20;;;;;;5054154;28;20025;-48
2022/06/10 10:44:41;;;;;;;3.15;1.95;;;24.30;71.80;;;;;;5054075;28;20029;-48
2022/06/10 10:47:09;;;;;;;3.92;1.50;;;24.30;72.30;;;;;;5053360;28;20025;-48
2022/06/10 10:49:40;;;;;;;2.67;1.30;;;24.20;72.60;;;;;;5054006;28;20029;-47
2022/06/10 10:52:17;;;;;;;1.75;1.20;;;24.20;72.30;;;;;;5053774;28;20068;-46
2022/06/10 10:54:45;;;;;;;3.67;1.10;;;24.20;72.00;;;;;;5052097;28;20082;-48
2022/06/10 10:57:29;;;;;;;4.45;1.95;;;24.30;71.60;;;;;;5053274;28;20396;-48
2022/06/10 11:00:10;;;;;;;23.77;14.18;;;24.30;70.50;;;;;;5053923;28;20021;-50
2022/06/10 11:02:47;;;;;;;11.80;7.72;;;24.20;72.30;;;;;;5053847;28;20021;-49
2022/06/10 11:05:16;;;;;;;5.57;1.58;;;24.00;70.60;;;;;;5079731;23;20045;-49
2022/06/10 11:07:43;;;;;;;3.83;1.27;;;24.00;71.90;;;;;;5059844;28;20036;-50
2022/06/10 11:10:22;;;;;;;2.60;1.27;;;24.10;71.90;;;;;;5059052;28;20025;-46
2022/06/10 11:12:48;;;;;;;4.78;1.65;;;24.00;69.30;;;;;;5059449;28;20059;-48
2022/06/10 11:15:21;;;;;;;3.35;1.00;;;23.80;68.20;;;;;;5059021;28;20501;-46
2022/06/10 11:17:49;;;;;;;6.13;1.70;;;23.70;70.10;;;;;;5058187;28;20033;-46
2022/06/10 11:20:14;;;;;;;6.65;1.70;;;23.70;71.60;;;;;;5058564;28;20112;-49
2022/06/10 11:22:40;;;;;;;3.53;1.38;;;23.70;71.60;;;;;;5058349;28;20055;-44
2022/06/10 11:25:09;;;;;;;7.30;1.63;;;23.70;72.00;;;;;;5058991;28;20103;-47
2022/06/10 11:27:39;;;;;;;2.33;1.00;;;23.60;70.30;;;;;;5058323;28;20024;-47
2022/06/10 11:30:11;;;;;;;7.80;1.60;;;23.60;72.10;;;;;;5059554;28;20017;-49
2022/06/10 11:32:44;;;;;;;3.13;1.50;;;23.60;71.70;;;;;;5055588;28;20052;-46
2022/06/10 11:35:33;;;;;;;6.00;1.52;;;23.50;72.80;;;;;;5058096;28;20020;-46
2022/06/10 11:38:15;;;;;;;3.67;1.42;;;23.60;71.00;;;;;;5057105;28;20037;-46
2022/06/10 11:40:50;;;;;;;7.25;1.77;;;23.50;72.00;;;;;;5059091;28;20021;-48
2022/06/10 11:43:27;;;;;;;5.55;1.85;;;23.40;73.60;;;;;;5059382;28;20025;-46
2022/06/10 11:46:05;;;;;;;5.05;1.75;;;23.30;73.10;;;;;;5062696;28;20033;-47
2022/06/10 11:49:02;;;;;;;7.50;1.92;;;23.20;74.20;;;;;;5061620;28;20028;-48
2022/06/10 11:51:43;;;;;;;6.90;1.83;;;23.20;75.60;;;;;;5064504;28;20044;-50
2022/06/10 11:54:23;;;;;;;3.63;2.38;;;23.40;77.10;;;;;;5058154;28;20034;-52
2022/06/10 12:00:16;;;;;;;4.38;2.20;;;23.60;76.20;;;;;;5058506;28;20059;-47
2022/06/10 12:03:12;;;;;;;6.20;1.70;;;23.90;74.70;;;;;;5059515;28;20032;-51
2022/06/10 12:05:45;;;;;;;4.07;1.92;;;23.80;72.80;;;;;;5057661;28;20037;-50
2022/06/10 12:08:24;;;;;;;8.23;1.75;;;24.10;73.20;;;;;;5056871;28;20121;-48
2022/06/10 12:11:08;;;;;;;5.35;1.75;;;23.70;74.10;;;;;;5058616;28;20021;-48
2022/06/10 12:13:54;;;;;;;7.75;2.58;;;23.70;75.10;;;;;;5058325;28;20029;-47
2022/06/10 12:16:20;;;;;;;6.38;2.33;;;23.70;74.10;;;;;;5056762;28;20048;-48
2022/06/10 12:18:49;;;;;;;9.85;2.72;;;23.60;73.90;;;;;;5056304;28;20025;-48
2022/06/10 12:21:22;;;;;;;11.75;4.50;;;23.70;74.60;;;;;;5057752;28;20032;-48
2022/06/10 12:23:48;;;;;;;31.88;22.05;;;23.70;73.60;;;;;;5057010;28;20079;-43
2022/06/10 12:26:19;;;;;;;8.50;5.65;;;23.70;73.60;;;;;;5057100;28;20393;-46
2022/06/10 12:29:15;;;;;;;3.33;1.80;;;23.70;74.10;;;;;;5056721;28;20049;-47
2022/06/10 12:32:05;;;;;;;6.25;1.70;;;23.80;74.60;;;;;;5057698;28;20029;-48
2022/06/10 12:34:53;;;;;;;6.05;2.00;;;23.90;74.60;;;;;;5056031;28;20108;-52
2022/06/10 12:37:27;;;;;;;4.63;1.40;;;24.00;74.60;;;;;;5056540;28;20392;-49
2022/06/10 12:40:02;;;;;;;5.10;2.05;;;24.10;73.50;;;;;;5057128;28;20024;-49
2022/06/10 12:42:47;;;;;;;4.60;1.48;;;24.10;74.90;;;;;;5055700;28;20492;-51
2022/06/10 12:45:21;;;;;;;5.00;1.48;;;24.30;74.50;;;;;;5055299;28;20406;-48
2022/06/10 12:47:53;;;;;;;5.78;1.95;;;24.30;73.70;;;;;;5055428;28;20059;-46
2022/06/10 12:50:23;;;;;;;5.80;1.60;;;24.30;74.50;;;;;;5056841;28;20051;-45
2022/06/10 12:53:16;;;;;;;5.40;1.38;;;24.40;71.90;;;;;;5057251;28;20043;-47
2022/06/10 12:55:54;;;;;;;2.58;1.30;;;24.20;72.00;;;;;;5056829;28;20028;-50
2022/06/10 12:58:38;;;;;;;6.20;1.63;;;24.20;72.30;;;;;;5056853;28;20032;-51
2022/06/10 13:01:21;;;;;;;7.65;1.48;;;24.20;71.60;;;;;;5056890;28;20025;-46
2022/06/10 13:03:57;;;;;;;4.30;1.60;;;24.20;72.80;;;;;;5056071;28;20032;-50
2022/06/10 13:06:28;;;;;;;2.17;1.45;;;24.20;73.80;;;;;;5056728;28;20117;-47
2022/06/10 13:09:22;;;;;;;3.83;1.20;;;24.30;72.20;;;;;;5055909;28;20021;-46
2022/06/10 13:11:56;;;;;;;3.65;1.30;;;24.30;71.80;;;;;;5056360;28;20400;-48
2022/06/10 13:14:33;;;;;;;3.92;1.20;;;24.40;71.90;;;;;;5058543;28;20053;-48
2022/06/10 13:16:58;;;;;;;3.88;1.27;;;24.40;73.50;;;;;;5058711;28;20021;-47
2022/06/10 13:19:53;;;;;;;4.18;1.38;;;24.50;72.90;;;;;;5059459;28;20495;-49
2022/06/10 13:22:18;;;;;;;5.50;1.38;;;24.70;73.20;;;;;;5059896;28;20025;-46
2022/06/10 13:24:54;;;;;;;5.25;1.60;;;24.70;72.40;;;;;;5059684;28;20025;-53
2022/06/10 13:27:20;;;;;;;3.58;1.48;;;24.90;72.70;;;;;;5059440;28;20040;-48
2022/06/10 13:29:51;;;;;;;7.50;1.60;;;24.90;71.70;;;;;;5059672;28;20028;-47
2022/06/10 13:32:17;;;;;;;6.22;0.98;;;24.90;72.00;;;;;;5059251;28;20029;-50
2022/06/10 13:34:43;;;;;;;5.28;1.60;;;24.90;73.30;;;;;;5058662;28;20031;-46
2022/06/10 13:37:18;;;;;;;3.70;1.40;;;25.00;72.20;;;;;;5059469;28;20059;-47